mai
17

GP D’ESPAGNE : LES PREMIÈRES MANCHES POUR GONCALVES & BARRAGAN

youthstreamspaingp09

MX2 – Grand Prix Race 1 Classification
Pos Nr Rider Nat. Fed. Bike Time laps Diff. First Diff. Prev. Bestlaptime in lap Speed

1 5 Goncalves, Rui POR FMP KTM 39:21.424 20 0:00.000 0:00.000 1:56.405 3 48.586
2 89 van Horebeek, Jeremy BEL FMB KTM 39:23.242 20 0:01.818 0:01.818 1:56.304 3 48.628
3 121 Boog, Xavier FRA FFM Suzuki 39:27.295 20 0:05.871 0:04.053 1:55.998 4 48.756
4 39 Guarneri, Davide ITA FMI Yamaha 39:27.850 20 0:06.426 0:00.555 1:56.171 3 48.683
5 183 Frossard, Steven FRA FFM Kawasaki 39:29.315 20 0:07.891 0:01.465 1:55.690 4 48.886
6 94 Roczen, Ken GER DMSB Suzuki 39:29.378 20 0:07.954 0:00.063 1:56.416 6 48.581
7 22 Boissiere, Anthony FRA FFM KTM 39:45.770 20 0:24.346 0:16.392 1:56.487 4 48.551
8 13 Monni, Manuel ITA FMI Yamaha 39:51.002 20 0:29.578 0:05.232 1:57.391 7 48.177
9 27 Schiffer, Marcus GER DMSB KTM 39:54.606 20 0:33.182 0:03.604 1:57.469 6 48.145
10 23 Tonus, Arnaud SUI FMS KTM 39:55.475 20 0:34.051 0:00.869 1:57.307 4 48.212
11 3 Aubin, Nicolas FRA FFM Yamaha 39:56.209 20 0:34.785 0:00.734 1:57.282 11 48.222
12 335 Verbruggen, Dennis BEL FMB Honda 40:00.992 20 0:39.568 0:04.783 1:57.515 15 48.127
13 34 Roelants, Joel BEL FMB KTM 40:01.440 20 0:40.016 0:00.448 1:57.124 18 48.287
14 25 Musquin, Marvin FRA FFM Honda 40:12.665 20 0:51.241 0:11.225 1:57.582 3 48.099
15 175 Larsen, Nikolai DEN DMU Suzuki 40:15.705 20 0:54.281 0:03.040 1:57.543 8 48.115
16 21 Paulin, Gautier FRA MCM Kawasaki 40:18.980 20 0:57.556 0:03.275 1:57.784 6 48.017
17 45 Nicholls, Jake GBR ACU KTM 40:20.257 20 0:58.833 0:01.277 1:58.832 3 47.593
18 91 Karro, Matiss LAT LAMSF Suzuki 40:22.390 20 1:00.966 0:02.133 1:58.020 4 47.921
19 44 Kojima, Yohei JPN MFJ Suzuki 40:24.532 20 1:03.108 0:02.142 1:58.727 3 47.635
20 56 Bobryshev, Evgeny RUS MFR Yamaha 40:28.772 20 1:07.348 0:04.240 1:58.167 15 47.861
21 119 Pocock, Mel GBR ACU Yamaha 40:29.912 20 1:08.488 0:01.140 1:58.148 4 47.869
22 51 Smitka, Petr CZE ACCR KTM 40:32.462 20 1:11.038 0:02.550 1:57.633 5 48.078
23 7 Sword, Stephen GBR ACU KTM 40:39.916 20 1:18.492 0:07.454 1:58.653 7 47.665
24 24 Butron Oliva, Jose Antonio ESP RFME KTM 40:40.186 20 1:18.762 0:00.270 1:59.117 7 47.479
25 519 Rombaut, Loic FRA FFM Kawasaki 40:41.486 20 1:20.062 0:01.300 1:58.954 5 47.544
26 30 Klein Kromhof, Ceriel NED KNMV KTM 40:53.150 20 1:31.726 0:11.664 1:59.986 7 47.135
27 17 Clermont, Jason FRA FFM Honda 41:07.796 20 1:46.372 0:14.646 1:59.819 4 47.201
28 95 Justs, Augusts LAT LAMSF KTM 39:41.058 19 1 lap(s) 1 lap(s) 2:01.473 7 46.558
29 153 Maddii, Marco ITA FMI Suzuki 39:44.037 19 1 lap(s) 0:02.979 2:02.316 5 46.238
30 48 Martinez Ruiz, Jose Luis ESP RFME Yamaha 40:44.358 19 1 lap(s) 1:00.321 2:01.658 6 46.488
31 14 Philippaerts, Deny ITA FMI Yamaha 36:52.172 18 2 lap(s) 1 lap(s) 2:00.116 7 47.084
32 64 Vongsana, Khounsith FRA FFM Honda 34:30.762 17 3 lap(s) 1 lap(s) 1:58.436 4 47.752
33 75 Triest, Nick BEL FMB KTM 26:32.383 13 7 lap(s) 4 lap(s) 1:58.760 5 47.622
34 46 Cros Cortes, Joan ESP RFME Kawasaki 23:24.601 11 9 lap(s) 2 lap(s) 2:00.375 5 46.983
35 131 Michek, Martin CZE ACCR TM 6:35.781 3 17 lap(s) 8 lap(s) 2:02.317 3 46.237

NOUVELLE ATTAQUE SUICIDE DE CAIROLI TOTALEMENT INUTILE SUR BILLY MAC KENZIE (CHUTE DES 2 PILOTES À LA CLEF..!) MAIS JOSH COPPINS EN LUI REFERMANT UNE PORTE SUR SA TENTATIVE DE DÉPASSEMENT UN PEU PLUS TARD VA LE FAIRE CHUTER LOURDEMENT, COMME QUOI ON PAYE TOUJOURS UN JOUR..!

MX1 – Grand Prix Race 1 Classification
Pos Nr Rider Nat. Fed. Bike Time laps Diff. First Diff. Prev. Bestlaptime in lap Speed

1 7 Barragan, Jonathan ESP RFME KTM 40:38.899 21 0:00.000 0:00.000 1:53.368 4 49.887
2 25 Desalle, Clement BEL FMB Honda 40:49.881 21 0:10.982 0:10.982 1:54.455 6 49.413
3 19 Philippaerts, David ITA FMI Yamaha 40:50.352 21 0:11.453 0:00.471 1:55.166 9 49.108
4 6 Coppins, Joshua NZL MNZ Yamaha 40:55.172 21 0:16.273 0:04.820 1:55.456 6 48.985
5 12 Vuillemin, David FRA FFM Kawasaki 40:56.345 21 0:17.446 0:01.173 1:54.912 18 49.217
6 17 Swanepoel, Gareth RSA MSA Kawasaki 40:57.516 21 0:18.617 0:01.171 1:55.123 20 49.127
7 5 Nagl, Maximilian GER DMSB KTM 40:58.076 21 0:19.177 0:00.560 1:54.277 13 49.49
8 222 Cairoli, Antonio ITA FMI Yamaha 41:30.064 21 0:51.165 0:31.988 1:53.285 11 49.924
9 8 Leok, Tanel EST EMF Yamaha 41:32.973 21 0:54.074 0:02.909 1:55.625 12 48.913
10 111 Leok, Aigar EST EMF TM 41:44.551 21 1:05.652 0:11.578 1:55.667 5 48.896
11 211 Mackenzie, Billy GBR ACU Honda 41:49.673 21 1:10.774 0:05.122 1:56.072 6 48.725
12 15 Bill, Julien SUI FMS Aprilia 41:52.081 21 1:13.182 0:02.408 1:57.504 4 48.131
13 115 Campano, Carlos ESP RFME Yamaha 41:53.165 21 1:14.266 0:01.084 1:57.131 9 48.284
14 24 Church, Tom GBR ACU CCM 42:05.335 21 1:26.436 0:12.170 1:56.722 3 48.454
15 46 Dougan, Jason GBR ACU CCM 42:27.743 21 1:48.844 0:22.408 1:58.087 9 47.894
16 77 Terreblanche, Shannon RSA MSA Kawasaki 40:39.537 20 1 lap(s) 1 lap(s) 1:59.226 4 47.436
17 74 Steinbergs, Ivo LAT LAMSF Honda 40:41.019 20 1 lap(s) 0:01.482 1:59.074 7 47.497
18 33 Carlsson, Johan SWE SVEMO Suzuki 40:41.708 20 1 lap(s) 0:00.689 1:58.209 5 47.844
19 311 Correira, Luis POR FMP Suzuki 40:47.109 20 1 lap(s) 0:05.401 1:59.117 17 47.479
20 56 van Vijfeijken, Rob NED KNMV Yamaha 41:07.729 20 1 lap(s) 0:20.620 2:00.075 7 47.101
21 23 Kempelis, Filips LAT LAMSF Honda 41:38.386 20 1 lap(s) 0:30.657 1:58.946 9 47.548
22 32 Priem, Manuel BEL FMB Aprilia 31:46.131 16 5 lap(s) 4 lap(s) 1:56.309 6 48.626
23 37 Krestinov, Gert EST EMF KTM 20:11.924 10 11 lap(s) 6 lap(s) 1:57.409 8 48.17
24 87 Izoird, Fabien FRA FFM Suzuki 12:14.325 6 15 lap(s) 4 lap(s) 1:56.149 3 48.693
25 45 Leonce, Loic FRA FFM Aprilia 10:05.340 5 16 lap(s) 1 lap(s) 1:56.606 4 48.502

26 75 Wouts, Kevin BEL FMB Honda 8:23.229 4 17 lap(s) 1 lap(s) 2:00.452 3 46.953
27 9 de Dycker, Ken BEL FMB Suzuki 2:50.828 1 20 lap(s) 3 lap(s) 2:46.389 1 33.99
28 20 Aranda, Gregory FRA FFM Kawasaki 3:22.487 1 20 lap(s) 0:31.659 3:18.063 1 28.555

youthstreammxsponso09

A voir aussi :

Le commentaires sont fermés.